Terminal Aerodrome Forecast
Issued by NWS Cleveland, OH

Home | Current Version | Previous Version | Text Only | Print | Product List | Glossary Off
Versions: 1 2 3 4 5 6 7 8 9 10 11 12 13 14 15 16

000
FTUS41 KCLE 190538
TAFTOL
TAF
KTOL 190538Z 1906/2006 23005KT P6SM SCT045 BKN070
     FM190900 23005KT 6SM BR VCTS SCT045CB BKN100
     FM191300 27008KT P6SM FEW035 SCT100
     FM191700 29008KT P6SM BKN040 BKN100
     FM200000 23003KT P6SM FEW200=

USA.gov is the U.S. government's official web portal to all federal, state and local government web resources and services.